sensor_id;sensor_type;location;lat;lon;timestamp;P1;durP1;ratioP1;P2;durP2;ratioP2
17830;SDS011;9040;51.332;12.406;2022-07-24T00:01:42;5.73;;;1.80;;
17830;SDS011;9040;51.332;12.406;2022-07-24T00:04:09;4.27;;;2.00;;
17830;SDS011;9040;51.332;12.406;2022-07-24T00:06:36;7.83;;;2.47;;
17830;SDS011;9040;51.332;12.406;2022-07-24T00:09:03;2.40;;;1.50;;
17830;SDS011;9040;51.332;12.406;2022-07-24T00:11:31;2.27;;;2.00;;
17830;SDS011;9040;51.332;12.406;2022-07-24T00:13:58;4.30;;;3.03;;
17830;SDS011;9040;51.332;12.406;2022-07-24T00:16:26;5.43;;;2.87;;
17830;SDS011;9040;51.332;12.406;2022-07-24T00:18:53;9.53;;;2.57;;
17830;SDS011;9040;51.332;12.406;2022-07-24T00:21:20;2.57;;;1.67;;
17830;SDS011;9040;51.332;12.406;2022-07-24T00:23:47;6.60;;;3.17;;
17830;SDS011;9040;51.332;12.406;2022-07-24T00:26:13;6.50;;;3.00;;
17830;SDS011;9040;51.332;12.406;2022-07-24T00:28:41;3.43;;;2.37;;
17830;SDS011;9040;51.332;12.406;2022-07-24T00:31:07;4.80;;;2.57;;
17830;SDS011;9040;51.332;12.406;2022-07-24T00:33:36;4.67;;;3.30;;
17830;SDS011;9040;51.332;12.406;2022-07-24T00:36:03;6.33;;;3.00;;
17830;SDS011;9040;51.332;12.406;2022-07-24T00:38:30;6.33;;;4.00;;
17830;SDS011;9040;51.332;12.406;2022-07-24T00:40:57;7.50;;;2.80;;
17830;SDS011;9040;51.332;12.406;2022-07-24T00:43:24;8.30;;;2.97;;
17830;SDS011;9040;51.332;12.406;2022-07-24T00:45:51;5.67;;;2.20;;
17830;SDS011;9040;51.332;12.406;2022-07-24T00:48:17;5.57;;;3.67;;
17830;SDS011;9040;51.332;12.406;2022-07-24T00:50:46;3.30;;;2.47;;
17830;SDS011;9040;51.332;12.406;2022-07-24T00:53:13;4.27;;;2.60;;
17830;SDS011;9040;51.332;12.406;2022-07-24T00:55:40;3.90;;;2.17;;
17830;SDS011;9040;51.332;12.406;2022-07-24T00:58:08;4.47;;;2.27;;
17830;SDS011;9040;51.332;12.406;2022-07-24T01:00:35;7.73;;;2.00;;
17830;SDS011;9040;51.332;12.406;2022-07-24T01:03:02;9.67;;;2.50;;
17830;SDS011;9040;51.332;12.406;2022-07-24T01:05:29;3.03;;;1.70;;
17830;SDS011;9040;51.332;12.406;2022-07-24T01:07:57;2.10;;;1.80;;
17830;SDS011;9040;51.332;12.406;2022-07-24T01:10:24;3.70;;;2.40;;
17830;SDS011;9040;51.332;12.406;2022-07-24T01:12:51;6.23;;;2.57;;
17830;SDS011;9040;51.332;12.406;2022-07-24T01:15:18;6.77;;;2.47;;
17830;SDS011;9040;51.332;12.406;2022-07-24T01:17:45;8.33;;;1.80;;
17830;SDS011;9040;51.332;12.406;2022-07-24T01:20:12;2.63;;;1.90;;
17830;SDS011;9040;51.332;12.406;2022-07-24T01:22:40;2.10;;;1.83;;
17830;SDS011;9040;51.332;12.406;2022-07-24T01:25:07;5.80;;;1.87;;
17830;SDS011;9040;51.332;12.406;2022-07-24T01:27:36;2.40;;;2.00;;
17830;SDS011;9040;51.332;12.406;2022-07-24T01:30:03;11.93;;;3.00;;
17830;SDS011;9040;51.332;12.406;2022-07-24T01:32:30;4.50;;;2.43;;
17830;SDS011;9040;51.332;12.406;2022-07-24T01:34:57;6.60;;;1.93;;
17830;SDS011;9040;51.332;12.406;2022-07-24T01:37:24;7.87;;;2.70;;
17830;SDS011;9040;51.332;12.406;2022-07-24T01:39:52;2.67;;;2.47;;
17830;SDS011;9040;51.332;12.406;2022-07-24T01:42:19;5.33;;;2.33;;
17830;SDS011;9040;51.332;12.406;2022-07-24T01:44:46;7.50;;;2.50;;
17830;SDS011;9040;51.332;12.406;2022-07-24T01:47:13;8.47;;;2.10;;
17830;SDS011;9040;51.332;12.406;2022-07-24T01:49:40;2.67;;;2.20;;
17830;SDS011;9040;51.332;12.406;2022-07-24T01:52:08;6.13;;;2.73;;
17830;SDS011;9040;51.332;12.406;2022-07-24T01:54:35;2.87;;;2.17;;
17830;SDS011;9040;51.332;12.406;2022-07-24T01:57:03;3.10;;;2.00;;
17830;SDS011;9040;51.332;12.406;2022-07-24T01:59:30;9.13;;;2.83;;
17830;SDS011;9040;51.332;12.406;2022-07-24T02:01:56;2.83;;;2.40;;
17830;SDS011;9040;51.332;12.406;2022-07-24T02:04:23;5.90;;;2.10;;
17830;SDS011;9040;51.332;12.406;2022-07-24T02:06:50;2.93;;;2.60;;
17830;SDS011;9040;51.332;12.406;2022-07-24T02:09:17;3.27;;;2.33;;
17830;SDS011;9040;51.332;12.406;2022-07-24T02:11:44;4.67;;;3.00;;
17830;SDS011;9040;51.332;12.406;2022-07-24T02:14:12;3.43;;;2.90;;
17830;SDS011;9040;51.332;12.406;2022-07-24T02:16:39;6.63;;;2.60;;
17830;SDS011;9040;51.332;12.406;2022-07-24T02:19:05;4.67;;;3.00;;
17830;SDS011;9040;51.332;12.406;2022-07-24T02:21:32;5.93;;;2.50;;
17830;SDS011;9040;51.332;12.406;2022-07-24T02:23:59;4.93;;;2.47;;
17830;SDS011;9040;51.332;12.406;2022-07-24T02:26:26;4.40;;;2.60;;
17830;SDS011;9040;51.332;12.406;2022-07-24T02:28:53;3.77;;;3.23;;
17830;SDS011;9040;51.332;12.406;2022-07-24T02:31:21;4.80;;;3.27;;
17830;SDS011;9040;51.332;12.406;2022-07-24T02:33:48;2.67;;;2.47;;
17830;SDS011;9040;51.332;12.406;2022-07-24T02:36:15;5.97;;;3.50;;
17830;SDS011;9040;51.332;12.406;2022-07-24T02:38:42;4.77;;;3.23;;
17830;SDS011;9040;51.332;12.406;2022-07-24T02:41:08;8.27;;;3.10;;
17830;SDS011;9040;51.332;12.406;2022-07-24T02:43:35;3.90;;;3.30;;
17830;SDS011;9040;51.332;12.406;2022-07-24T02:46:02;9.37;;;3.40;;
17830;SDS011;9040;51.332;12.406;2022-07-24T02:48:31;4.20;;;2.90;;
17830;SDS011;9040;51.332;12.406;2022-07-24T02:50:58;3.37;;;3.07;;
17830;SDS011;9040;51.332;12.406;2022-07-24T02:53:24;10.03;;;3.60;;
17830;SDS011;9040;51.332;12.406;2022-07-24T02:55:51;4.27;;;3.00;;
17830;SDS011;9040;51.332;12.406;2022-07-24T02:58:18;5.97;;;3.87;;
17830;SDS011;9040;51.332;12.406;2022-07-24T03:00:45;4.43;;;3.30;;
17830;SDS011;9040;51.332;12.406;2022-07-24T03:03:12;6.70;;;3.77;;
17830;SDS011;9040;51.332;12.406;2022-07-24T03:05:40;5.90;;;3.60;;
17830;SDS011;9040;51.332;12.406;2022-07-24T03:08:07;2.90;;;2.60;;
17830;SDS011;9040;51.332;12.406;2022-07-24T03:10:34;4.30;;;2.97;;
17830;SDS011;9040;51.332;12.406;2022-07-24T03:13:01;5.70;;;3.20;;
17830;SDS011;9040;51.332;12.406;2022-07-24T03:15:28;3.50;;;2.77;;
17830;SDS011;9040;51.332;12.406;2022-07-24T03:17:55;9.20;;;3.30;;
17830;SDS011;9040;51.332;12.406;2022-07-24T03:20:23;13.53;;;3.70;;
17830;SDS011;9040;51.332;12.406;2022-07-24T03:22:52;8.63;;;3.90;;
17830;SDS011;9040;51.332;12.406;2022-07-24T03:25:20;3.93;;;3.53;;
17830;SDS011;9040;51.332;12.406;2022-07-24T03:27:47;16.43;;;3.80;;
17830;SDS011;9040;51.332;12.406;2022-07-24T03:30:16;5.00;;;3.97;;
17830;SDS011;9040;51.332;12.406;2022-07-24T03:32:43;6.87;;;4.03;;
17830;SDS011;9040;51.332;12.406;2022-07-24T03:35:11;7.73;;;2.83;;
17830;SDS011;9040;51.332;12.406;2022-07-24T03:37:38;3.90;;;3.50;;
17830;SDS011;9040;51.332;12.406;2022-07-24T03:40:07;37.30;;;8.73;;
17830;SDS011;9040;51.332;12.406;2022-07-24T03:42:34;4.87;;;3.30;;
17830;SDS011;9040;51.332;12.406;2022-07-24T03:45:02;4.70;;;3.40;;
17830;SDS011;9040;51.332;12.406;2022-07-24T03:47:29;4.80;;;3.53;;
17830;SDS011;9040;51.332;12.406;2022-07-24T03:49:56;6.73;;;3.17;;
17830;SDS011;9040;51.332;12.406;2022-07-24T03:52:23;6.80;;;4.00;;
17830;SDS011;9040;51.332;12.406;2022-07-24T03:54:50;4.07;;;3.67;;
17830;SDS011;9040;51.332;12.406;2022-07-24T03:57:18;4.90;;;3.43;;
17830;SDS011;9040;51.332;12.406;2022-07-24T03:59:45;14.00;;;3.13;;
17830;SDS011;9040;51.332;12.406;2022-07-24T04:02:12;4.43;;;4.00;;
17830;SDS011;9040;51.332;12.406;2022-07-24T04:04:39;7.33;;;4.20;;
17830;SDS011;9040;51.332;12.406;2022-07-24T04:07:06;4.67;;;3.33;;
17830;SDS011;9040;51.332;12.406;2022-07-24T04:09:33;6.10;;;3.63;;
17830;SDS011;9040;51.332;12.406;2022-07-24T04:11:59;7.07;;;4.90;;
17830;SDS011;9040;51.332;12.406;2022-07-24T04:14:28;10.10;;;4.47;;
17830;SDS011;9040;51.332;12.406;2022-07-24T04:16:55;5.60;;;4.40;;
17830;SDS011;9040;51.332;12.406;2022-07-24T04:19:22;7.00;;;4.17;;
17830;SDS011;9040;51.332;12.406;2022-07-24T04:21:50;4.27;;;3.77;;
17830;SDS011;9040;51.332;12.406;2022-07-24T04:24:16;5.73;;;3.70;;
17830;SDS011;9040;51.332;12.406;2022-07-24T04:26:43;8.90;;;5.00;;
17830;SDS011;9040;51.332;12.406;2022-07-24T04:29:10;9.30;;;3.90;;
17830;SDS011;9040;51.332;12.406;2022-07-24T04:31:38;12.43;;;5.30;;
17830;SDS011;9040;51.332;12.406;2022-07-24T04:34:05;6.83;;;5.07;;
17830;SDS011;9040;51.332;12.406;2022-07-24T04:36:32;4.77;;;4.37;;
17830;SDS011;9040;51.332;12.406;2022-07-24T04:38:59;4.23;;;3.70;;
17830;SDS011;9040;51.332;12.406;2022-07-24T04:41:26;6.10;;;4.00;;
17830;SDS011;9040;51.332;12.406;2022-07-24T04:43:53;4.90;;;4.40;;
17830;SDS011;9040;51.332;12.406;2022-07-24T04:46:20;4.13;;;3.03;;
17830;SDS011;9040;51.332;12.406;2022-07-24T04:48:48;10.00;;;5.37;;
17830;SDS011;9040;51.332;12.406;2022-07-24T04:51:15;10.23;;;5.03;;
17830;SDS011;9040;51.332;12.406;2022-07-24T04:53:42;7.83;;;4.80;;
17830;SDS011;9040;51.332;12.406;2022-07-24T04:56:09;8.43;;;5.53;;
17830;SDS011;9040;51.332;12.406;2022-07-24T04:58:36;7.57;;;4.73;;
17830;SDS011;9040;51.332;12.406;2022-07-24T05:01:02;8.30;;;5.10;;
17830;SDS011;9040;51.332;12.406;2022-07-24T05:03:29;7.63;;;5.50;;
17830;SDS011;9040;51.332;12.406;2022-07-24T05:05:57;5.57;;;3.67;;
17830;SDS011;9040;51.332;12.406;2022-07-24T05:08:24;8.77;;;5.33;;
17830;SDS011;9040;51.332;12.406;2022-07-24T05:10:51;4.97;;;4.53;;
17830;SDS011;9040;51.332;12.406;2022-07-24T05:13:18;4.77;;;4.27;;
17830;SDS011;9040;51.332;12.406;2022-07-24T05:15:45;4.33;;;4.03;;
17830;SDS011;9040;51.332;12.406;2022-07-24T05:18:12;7.40;;;4.50;;
17830;SDS011;9040;51.332;12.406;2022-07-24T05:20:39;8.43;;;4.60;;
17830;SDS011;9040;51.332;12.406;2022-07-24T05:23:07;6.60;;;4.63;;
17830;SDS011;9040;51.332;12.406;2022-07-24T05:25:34;4.20;;;3.57;;
17830;SDS011;9040;51.332;12.406;2022-07-24T05:28:01;5.43;;;4.93;;
17830;SDS011;9040;51.332;12.406;2022-07-24T05:30:28;9.23;;;4.40;;
17830;SDS011;9040;51.332;12.406;2022-07-24T05:32:55;5.33;;;4.17;;
17830;SDS011;9040;51.332;12.406;2022-07-24T05:35:22;6.40;;;4.40;;
17830;SDS011;9040;51.332;12.406;2022-07-24T05:37:49;6.53;;;4.23;;
17830;SDS011;9040;51.332;12.406;2022-07-24T05:40:18;4.60;;;4.10;;
17830;SDS011;9040;51.332;12.406;2022-07-24T05:42:44;5.83;;;3.50;;
17830;SDS011;9040;51.332;12.406;2022-07-24T05:45:11;14.27;;;3.90;;
17830;SDS011;9040;51.332;12.406;2022-07-24T05:47:38;7.47;;;3.77;;
17830;SDS011;9040;51.332;12.406;2022-07-24T05:50:06;5.30;;;3.63;;
17830;SDS011;9040;51.332;12.406;2022-07-24T05:52:34;4.47;;;2.90;;
17830;SDS011;9040;51.332;12.406;2022-07-24T05:55:02;11.77;;;3.13;;
17830;SDS011;9040;51.332;12.406;2022-07-24T05:57:31;3.77;;;3.27;;
17830;SDS011;9040;51.332;12.406;2022-07-24T05:59:58;3.03;;;2.83;;
17830;SDS011;9040;51.332;12.406;2022-07-24T06:02:25;7.20;;;2.87;;
17830;SDS011;9040;51.332;12.406;2022-07-24T06:04:52;3.93;;;3.03;;
17830;SDS011;9040;51.332;12.406;2022-07-24T06:07:19;5.43;;;2.90;;
17830;SDS011;9040;51.332;12.406;2022-07-24T06:09:46;3.10;;;2.53;;
17830;SDS011;9040;51.332;12.406;2022-07-24T06:12:13;3.10;;;2.80;;
17830;SDS011;9040;51.332;12.406;2022-07-24T06:14:41;3.83;;;2.47;;
17830;SDS011;9040;51.332;12.406;2022-07-24T06:17:08;3.70;;;2.17;;
17830;SDS011;9040;51.332;12.406;2022-07-24T06:19:34;4.27;;;2.00;;
17830;SDS011;9040;51.332;12.406;2022-07-24T06:22:01;3.70;;;2.20;;
17830;SDS011;9040;51.332;12.406;2022-07-24T06:24:28;2.50;;;1.90;;
17830;SDS011;9040;51.332;12.406;2022-07-24T06:26:55;3.50;;;2.30;;
17830;SDS011;9040;51.332;12.406;2022-07-24T06:29:22;5.70;;;2.20;;
17830;SDS011;9040;51.332;12.406;2022-07-24T06:31:50;5.40;;;2.80;;
17830;SDS011;9040;51.332;12.406;2022-07-24T06:34:17;7.10;;;2.50;;
17830;SDS011;9040;51.332;12.406;2022-07-24T06:36:48;3.00;;;2.40;;
17830;SDS011;9040;51.332;12.406;2022-07-24T06:39:15;4.10;;;2.70;;
17830;SDS011;9040;51.332;12.406;2022-07-24T06:41:42;3.83;;;2.47;;
17830;SDS011;9040;51.332;12.406;2022-07-24T06:44:09;2.53;;;2.23;;
17830;SDS011;9040;51.332;12.406;2022-07-24T06:46:36;6.53;;;2.20;;
17830;SDS011;9040;51.332;12.406;2022-07-24T06:49:04;3.10;;;2.50;;
17830;SDS011;9040;51.332;12.406;2022-07-24T06:51:31;3.53;;;2.27;;
17830;SDS011;9040;51.332;12.406;2022-07-24T06:53:58;2.53;;;2.27;;
17830;SDS011;9040;51.332;12.406;2022-07-24T06:56:25;9.33;;;2.60;;
17830;SDS011;9040;51.332;12.406;2022-07-24T06:58:52;5.53;;;2.40;;
17830;SDS011;9040;51.332;12.406;2022-07-24T07:01:18;5.13;;;2.20;;
17830;SDS011;9040;51.332;12.406;2022-07-24T07:03:45;4.20;;;2.80;;
17830;SDS011;9040;51.332;12.406;2022-07-24T07:06:13;2.13;;;2.03;;
17830;SDS011;9040;51.332;12.406;2022-07-24T07:08:40;4.43;;;2.13;;
17830;SDS011;9040;51.332;12.406;2022-07-24T07:11:07;3.90;;;1.97;;
17830;SDS011;9040;51.332;12.406;2022-07-24T07:13:34;3.90;;;2.80;;
17830;SDS011;9040;51.332;12.406;2022-07-24T07:16:01;2.10;;;1.57;;
17830;SDS011;9040;51.332;12.406;2022-07-24T07:18:28;1.87;;;1.77;;
17830;SDS011;9040;51.332;12.406;2022-07-24T07:20:55;1.90;;;1.10;;
17830;SDS011;9040;51.332;12.406;2022-07-24T07:23:23;5.30;;;1.63;;
17830;SDS011;9040;51.332;12.406;2022-07-24T07:25:52;10.87;;;1.20;;
17830;SDS011;9040;51.332;12.406;2022-07-24T07:28:19;1.97;;;1.13;;
17830;SDS011;9040;51.332;12.406;2022-07-24T07:30:46;4.70;;;1.30;;
17830;SDS011;9040;51.332;12.406;2022-07-24T07:33:13;4.97;;;1.00;;
17830;SDS011;9040;51.332;12.406;2022-07-24T07:35:40;3.60;;;0.90;;
17830;SDS011;9040;51.332;12.406;2022-07-24T07:38:07;3.93;;;1.33;;
17830;SDS011;9040;51.332;12.406;2022-07-24T07:40:35;10.50;;;2.00;;
17830;SDS011;9040;51.332;12.406;2022-07-24T07:43:02;2.50;;;1.27;;
17830;SDS011;9040;51.332;12.406;2022-07-24T07:45:29;1.80;;;0.83;;
17830;SDS011;9040;51.332;12.406;2022-07-24T07:47:56;2.30;;;1.53;;
17830;SDS011;9040;51.332;12.406;2022-07-24T07:50:22;1.97;;;1.20;;
17830;SDS011;9040;51.332;12.406;2022-07-24T07:52:49;7.80;;;1.27;;
17830;SDS011;9040;51.332;12.406;2022-07-24T07:55:16;2.90;;;1.33;;
17830;SDS011;9040;51.332;12.406;2022-07-24T07:57:44;1.37;;;1.03;;
17830;SDS011;9040;51.332;12.406;2022-07-24T08:00:12;4.70;;;1.23;;
17830;SDS011;9040;51.332;12.406;2022-07-24T08:02:39;1.67;;;1.10;;
17830;SDS011;9040;51.332;12.406;2022-07-24T08:05:06;4.40;;;1.70;;
17830;SDS011;9040;51.332;12.406;2022-07-24T08:07:34;11.97;;;1.50;;
17830;SDS011;9040;51.332;12.406;2022-07-24T08:10:01;1.90;;;1.30;;
17830;SDS011;9040;51.332;12.406;2022-07-24T08:12:28;4.33;;;1.23;;
17830;SDS011;9040;51.332;12.406;2022-07-24T08:14:56;4.00;;;1.80;;
17830;SDS011;9040;51.332;12.406;2022-07-24T08:17:23;3.23;;;1.10;;
17830;SDS011;9040;51.332;12.406;2022-07-24T08:19:50;5.20;;;2.13;;
17830;SDS011;9040;51.332;12.406;2022-07-24T08:22:18;9.27;;;1.67;;
17830;SDS011;9040;51.332;12.406;2022-07-24T08:24:45;3.23;;;1.23;;
17830;SDS011;9040;51.332;12.406;2022-07-24T08:27:12;2.17;;;1.33;;
17830;SDS011;9040;51.332;12.406;2022-07-24T08:29:38;5.20;;;1.87;;
17830;SDS011;9040;51.332;12.406;2022-07-24T08:32:07;5.67;;;1.90;;
17830;SDS011;9040;51.332;12.406;2022-07-24T08:34:34;11.90;;;2.07;;
17830;SDS011;9040;51.332;12.406;2022-07-24T08:37:00;7.67;;;2.00;;
17830;SDS011;9040;51.332;12.406;2022-07-24T08:39:27;7.13;;;1.73;;
17830;SDS011;9040;51.332;12.406;2022-07-24T08:41:54;3.53;;;1.73;;
17830;SDS011;9040;51.332;12.406;2022-07-24T08:44:21;4.20;;;1.67;;
17830;SDS011;9040;51.332;12.406;2022-07-24T08:46:48;3.20;;;2.20;;
17830;SDS011;9040;51.332;12.406;2022-07-24T08:49:20;5.40;;;2.13;;
17830;SDS011;9040;51.332;12.406;2022-07-24T08:51:48;3.17;;;2.07;;
17830;SDS011;9040;51.332;12.406;2022-07-24T08:54:16;1.77;;;1.53;;
17830;SDS011;9040;51.332;12.406;2022-07-24T08:56:43;22.07;;;4.90;;
17830;SDS011;9040;51.332;12.406;2022-07-24T08:59:16;5.33;;;2.03;;
17830;SDS011;9040;51.332;12.406;2022-07-24T09:01:43;1.80;;;1.70;;
17830;SDS011;9040;51.332;12.406;2022-07-24T09:07:07;3.20;;;1.70;;
17830;SDS011;9040;51.332;12.406;2022-07-24T09:09:35;3.90;;;2.77;;
17830;SDS011;9040;51.332;12.406;2022-07-24T09:12:04;8.83;;;2.23;;
17830;SDS011;9040;51.332;12.406;2022-07-24T09:14:32;4.90;;;1.57;;
17830;SDS011;9040;51.332;12.406;2022-07-24T09:17:03;4.20;;;2.00;;
17830;SDS011;9040;51.332;12.406;2022-07-24T09:19:31;2.70;;;2.07;;
17830;SDS011;9040;51.332;12.406;2022-07-24T09:22:17;9.70;;;1.60;;
17830;SDS011;9040;51.332;12.406;2022-07-24T09:25:05;4.47;;;2.00;;
17830;SDS011;9040;51.332;12.406;2022-07-24T09:27:35;2.13;;;1.90;;
17830;SDS011;9040;51.332;12.406;2022-07-24T09:30:03;3.17;;;1.53;;
17830;SDS011;9040;51.332;12.406;2022-07-24T09:32:33;2.43;;;1.50;;
17830;SDS011;9040;51.332;12.406;2022-07-24T09:35:03;2.03;;;1.70;;
17830;SDS011;9040;51.332;12.406;2022-07-24T09:37:31;1.87;;;1.50;;
17830;SDS011;9040;51.332;12.406;2022-07-24T09:40:08;6.80;;;2.00;;
17830;SDS011;9040;51.332;12.406;2022-07-24T09:42:36;1.53;;;1.43;;
17830;SDS011;9040;51.332;12.406;2022-07-24T09:45:06;4.50;;;2.13;;
17830;SDS011;9040;51.332;12.406;2022-07-24T09:47:37;2.63;;;1.67;;
17830;SDS011;9040;51.332;12.406;2022-07-24T09:50:12;2.83;;;1.40;;
17830;SDS011;9040;51.332;12.406;2022-07-24T09:52:41;5.57;;;2.30;;
17830;SDS011;9040;51.332;12.406;2022-07-24T09:57:53;3.20;;;1.53;;
17830;SDS011;9040;51.332;12.406;2022-07-24T10:00:21;5.50;;;2.00;;
17830;SDS011;9040;51.332;12.406;2022-07-24T10:02:48;6.30;;;2.10;;
17830;SDS011;9040;51.332;12.406;2022-07-24T10:05:18;3.10;;;2.23;;
17830;SDS011;9040;51.332;12.406;2022-07-24T10:07:47;2.70;;;2.13;;
17830;SDS011;9040;51.332;12.406;2022-07-24T10:10:15;4.90;;;1.90;;
17830;SDS011;9040;51.332;12.406;2022-07-24T10:12:42;2.23;;;1.47;;
17830;SDS011;9040;51.332;12.406;2022-07-24T10:15:12;5.30;;;2.10;;
17830;SDS011;9040;51.332;12.406;2022-07-24T10:17:52;5.23;;;1.77;;
17830;SDS011;9040;51.332;12.406;2022-07-24T10:20:38;3.53;;;2.03;;
17830;SDS011;9040;51.332;12.406;2022-07-24T10:23:07;3.83;;;2.27;;
17830;SDS011;9040;51.332;12.406;2022-07-24T10:25:38;3.50;;;2.27;;
17830;SDS011;9040;51.332;12.406;2022-07-24T10:28:35;9.63;;;1.90;;
17830;SDS011;9040;51.332;12.406;2022-07-24T10:31:07;3.50;;;3.20;;
17830;SDS011;9040;51.332;12.406;2022-07-24T10:33:35;3.73;;;1.53;;
17830;SDS011;9040;51.332;12.406;2022-07-24T10:36:08;5.33;;;1.83;;
17830;SDS011;9040;51.332;12.406;2022-07-24T10:38:44;4.23;;;2.90;;
17830;SDS011;9040;51.332;12.406;2022-07-24T10:41:21;4.63;;;2.77;;
17830;SDS011;9040;51.332;12.406;2022-07-24T10:46:57;7.33;;;1.90;;
17830;SDS011;9040;51.332;12.406;2022-07-24T10:49:35;1.80;;;1.70;;
17830;SDS011;9040;51.332;12.406;2022-07-24T10:52:09;4.13;;;1.83;;
17830;SDS011;9040;51.332;12.406;2022-07-24T10:54:38;2.10;;;2.00;;
17830;SDS011;9040;51.332;12.406;2022-07-24T10:57:05;2.43;;;2.23;;
17830;SDS011;9040;51.332;12.406;2022-07-24T10:59:33;5.43;;;1.97;;
17830;SDS011;9040;51.332;12.406;2022-07-24T11:10:58;1.87;;;1.77;;
17830;SDS011;9040;51.332;12.406;2022-07-24T11:13:43;2.63;;;2.10;;
17830;SDS011;9040;51.332;12.406;2022-07-24T11:16:18;2.13;;;1.93;;
17830;SDS011;9040;51.332;12.406;2022-07-24T11:22:06;1.80;;;1.70;;
17830;SDS011;9040;51.332;12.406;2022-07-24T11:24:35;2.10;;;1.90;;
17830;SDS011;9040;51.332;12.406;2022-07-24T11:27:13;2.93;;;2.00;;
17830;SDS011;9040;51.332;12.406;2022-07-24T11:29:43;2.70;;;2.33;;
17830;SDS011;9040;51.332;12.406;2022-07-24T11:32:11;3.30;;;2.57;;
17830;SDS011;9040;51.332;12.406;2022-07-24T11:34:43;3.57;;;2.07;;
17830;SDS011;9040;51.332;12.406;2022-07-24T11:37:11;3.30;;;1.60;;
17830;SDS011;9040;51.332;12.406;2022-07-24T11:39:39;2.00;;;1.80;;
17830;SDS011;9040;51.332;12.406;2022-07-24T11:42:09;2.23;;;2.03;;
17830;SDS011;9040;51.332;12.406;2022-07-24T11:44:37;3.60;;;2.03;;
17830;SDS011;9040;51.332;12.406;2022-07-24T11:47:06;2.87;;;2.60;;
17830;SDS011;9040;51.332;12.406;2022-07-24T11:49:42;2.37;;;2.17;;
17830;SDS011;9040;51.332;12.406;2022-07-24T11:52:14;6.07;;;2.80;;
17830;SDS011;9040;51.332;12.406;2022-07-24T11:54:42;6.50;;;2.07;;
17830;SDS011;9040;51.332;12.406;2022-07-24T11:57:17;2.20;;;1.83;;
17830;SDS011;9040;51.332;12.406;2022-07-24T11:59:46;6.10;;;2.30;;
17830;SDS011;9040;51.332;12.406;2022-07-24T12:02:14;2.57;;;2.37;;
17830;SDS011;9040;51.332;12.406;2022-07-24T12:04:42;4.60;;;2.40;;
17830;SDS011;9040;51.332;12.406;2022-07-24T12:07:10;2.37;;;2.17;;
17830;SDS011;9040;51.332;12.406;2022-07-24T12:09:45;2.00;;;1.90;;
17830;SDS011;9040;51.332;12.406;2022-07-24T12:12:25;2.77;;;1.83;;
17830;SDS011;9040;51.332;12.406;2022-07-24T12:14:54;4.57;;;3.00;;
17830;SDS011;9040;51.332;12.406;2022-07-24T12:17:28;10.53;;;2.40;;
17830;SDS011;9040;51.332;12.406;2022-07-24T12:19:56;7.03;;;3.37;;
17830;SDS011;9040;51.332;12.406;2022-07-24T12:22:24;3.70;;;2.37;;
17830;SDS011;9040;51.332;12.406;2022-07-24T12:24:53;5.07;;;1.90;;
17830;SDS011;9040;51.332;12.406;2022-07-24T12:27:36;3.27;;;2.50;;
17830;SDS011;9040;51.332;12.406;2022-07-24T12:30:15;2.87;;;2.67;;
17830;SDS011;9040;51.332;12.406;2022-07-24T12:33:00;4.80;;;2.40;;
17830;SDS011;9040;51.332;12.406;2022-07-24T12:35:29;5.73;;;2.73;;
17830;SDS011;9040;51.332;12.406;2022-07-24T12:37:58;4.17;;;1.77;;
17830;SDS011;9040;51.332;12.406;2022-07-24T12:40:29;3.53;;;2.07;;
17830;SDS011;9040;51.332;12.406;2022-07-24T12:43:00;2.63;;;1.77;;
17830;SDS011;9040;51.332;12.406;2022-07-24T12:45:30;5.03;;;2.63;;
17830;SDS011;9040;51.332;12.406;2022-07-24T12:48:07;2.13;;;1.33;;
17830;SDS011;9040;51.332;12.406;2022-07-24T12:53:30;2.77;;;2.27;;
17830;SDS011;9040;51.332;12.406;2022-07-24T12:56:05;2.27;;;2.07;;
17830;SDS011;9040;51.332;12.406;2022-07-24T12:58:48;1.70;;;1.60;;
17830;SDS011;9040;51.332;12.406;2022-07-24T13:01:25;1.40;;;1.30;;
17830;SDS011;9040;51.332;12.406;2022-07-24T13:03:54;1.73;;;1.67;;
17830;SDS011;9040;51.332;12.406;2022-07-24T13:06:37;4.20;;;1.27;;
17830;SDS011;9040;51.332;12.406;2022-07-24T13:09:06;1.40;;;1.30;;
17830;SDS011;9040;51.332;12.406;2022-07-24T13:11:34;7.40;;;1.00;;
17830;SDS011;9040;51.332;12.406;2022-07-24T13:14:04;1.20;;;1.10;;
17830;SDS011;9040;51.332;12.406;2022-07-24T13:16:32;1.40;;;1.30;;
17830;SDS011;9040;51.332;12.406;2022-07-24T13:19:00;3.83;;;1.27;;
17830;SDS011;9040;51.332;12.406;2022-07-24T13:21:28;1.83;;;1.20;;
17830;SDS011;9040;51.332;12.406;2022-07-24T13:23:55;1.17;;;1.10;;
17830;SDS011;9040;51.332;12.406;2022-07-24T13:26:23;3.80;;;1.20;;
17830;SDS011;9040;51.332;12.406;2022-07-24T13:28:50;2.70;;;1.00;;
17830;SDS011;9040;51.332;12.406;2022-07-24T13:31:19;1.30;;;1.20;;
17830;SDS011;9040;51.332;12.406;2022-07-24T13:33:46;1.37;;;1.00;;
17830;SDS011;9040;51.332;12.406;2022-07-24T13:36:14;0.93;;;0.93;;
17830;SDS011;9040;51.332;12.406;2022-07-24T13:38:41;1.43;;;1.10;;
17830;SDS011;9040;51.332;12.406;2022-07-24T13:41:08;11.70;;;10.80;;
17830;SDS011;9040;51.332;12.406;2022-07-24T13:43:36;3.20;;;1.20;;
17830;SDS011;9040;51.332;12.406;2022-07-24T13:46:03;1.70;;;0.90;;
17830;SDS011;9040;51.332;12.406;2022-07-24T13:48:32;1.93;;;0.97;;
17830;SDS011;9040;51.332;12.406;2022-07-24T13:50:59;5.70;;;1.50;;
17830;SDS011;9040;51.332;12.406;2022-07-24T13:53:26;2.00;;;1.90;;
17830;SDS011;9040;51.332;12.406;2022-07-24T13:55:53;1.43;;;1.13;;
17830;SDS011;9040;51.332;12.406;2022-07-24T13:58:20;1.47;;;1.37;;
17830;SDS011;9040;51.332;12.406;2022-07-24T14:00:46;1.17;;;1.00;;
17830;SDS011;9040;51.332;12.406;2022-07-24T14:03:13;1.13;;;1.13;;
17830;SDS011;9040;51.332;12.406;2022-07-24T14:05:42;6.60;;;3.77;;
17830;SDS011;9040;51.332;12.406;2022-07-24T14:08:09;3.70;;;1.40;;
17830;SDS011;9040;51.332;12.406;2022-07-24T14:10:35;3.73;;;2.40;;
17830;SDS011;9040;51.332;12.406;2022-07-24T14:13:02;1.20;;;1.10;;
17830;SDS011;9040;51.332;12.406;2022-07-24T14:15:29;0.90;;;0.90;;
17830;SDS011;9040;51.332;12.406;2022-07-24T14:17:56;3.20;;;1.00;;
17830;SDS011;9040;51.332;12.406;2022-07-24T14:20:23;1.10;;;1.00;;
17830;SDS011;9040;51.332;12.406;2022-07-24T14:22:51;3.40;;;0.90;;
17830;SDS011;9040;51.332;12.406;2022-07-24T14:25:18;1.10;;;1.10;;
17830;SDS011;9040;51.332;12.406;2022-07-24T14:27:45;1.13;;;0.80;;
17830;SDS011;9040;51.332;12.406;2022-07-24T14:30:12;8.03;;;0.90;;
17830;SDS011;9040;51.332;12.406;2022-07-24T14:32:39;2.27;;;0.90;;
17830;SDS011;9040;51.332;12.406;2022-07-24T14:35:06;4.70;;;1.60;;
17830;SDS011;9040;51.332;12.406;2022-07-24T14:37:33;1.20;;;0.90;;
17830;SDS011;9040;51.332;12.406;2022-07-24T14:40:03;0.80;;;0.80;;
17830;SDS011;9040;51.332;12.406;2022-07-24T14:42:31;0.83;;;0.83;;
17830;SDS011;9040;51.332;12.406;2022-07-24T14:44:58;1.10;;;1.00;;
17830;SDS011;9040;51.332;12.406;2022-07-24T14:47:25;1.10;;;1.10;;
17830;SDS011;9040;51.332;12.406;2022-07-24T14:49:52;3.10;;;1.97;;
17830;SDS011;9040;51.332;12.406;2022-07-24T14:52:20;1.33;;;1.03;;
17830;SDS011;9040;51.332;12.406;2022-07-24T14:54:47;8.53;;;1.50;;
17830;SDS011;9040;51.332;12.406;2022-07-24T14:57:15;4.33;;;1.10;;
17830;SDS011;9040;51.332;12.406;2022-07-24T14:59:43;1.70;;;1.00;;
17830;SDS011;9040;51.332;12.406;2022-07-24T15:02:10;1.10;;;1.10;;
17830;SDS011;9040;51.332;12.406;2022-07-24T15:04:37;2.03;;;1.23;;
17830;SDS011;9040;51.332;12.406;2022-07-24T15:07:05;2.43;;;1.30;;
17830;SDS011;9040;51.332;12.406;2022-07-24T15:09:32;0.97;;;0.97;;
17830;SDS011;9040;51.332;12.406;2022-07-24T15:11:59;1.50;;;1.40;;
17830;SDS011;9040;51.332;12.406;2022-07-24T15:14:27;2.00;;;1.03;;
17830;SDS011;9040;51.332;12.406;2022-07-24T15:16:54;11.63;;;1.63;;
17830;SDS011;9040;51.332;12.406;2022-07-24T15:19:21;2.37;;;1.87;;